createdAt,value
2022-08-11T00:00:34.509Z,2.60
2022-08-11T00:02:06.769Z,2.20
2022-08-11T00:03:50.662Z,2.33
2022-08-11T00:05:22.703Z,2.37
2022-08-11T00:06:55.469Z,2.13
2022-08-11T00:08:33.371Z,2.47
2022-08-11T00:10:09.682Z,2.40
2022-08-11T00:11:48.782Z,2.40
2022-08-11T00:13:21.194Z,2.53
2022-08-11T00:14:58.531Z,2.50
2022-08-11T00:16:30.826Z,2.40
2022-08-11T00:18:03.623Z,2.73
2022-08-11T00:20:12.423Z,2.50
2022-08-11T00:22:04.424Z,2.33
2022-08-11T00:23:41.831Z,2.47
2022-08-11T00:25:19.210Z,2.57
2022-08-11T00:26:52.848Z,2.60
2022-08-11T00:28:29.791Z,2.53
2022-08-11T00:30:02.120Z,2.70
2022-08-11T00:31:36.565Z,2.50
2022-08-11T00:33:08.959Z,2.30
2022-08-11T00:34:47.134Z,2.30
2022-08-11T00:36:25.595Z,3.03
2022-08-11T00:37:59.583Z,2.40
2022-08-11T00:39:34.965Z,2.90
2022-08-11T00:41:34.235Z,2.70
2022-08-11T00:43:59.630Z,2.77
2022-08-11T00:45:42.268Z,2.80
2022-08-11T00:47:36.371Z,2.60
2022-08-11T00:49:16.030Z,3.03
2022-08-11T00:51:02.190Z,2.63
2022-08-11T00:53:03.653Z,2.57
2022-08-11T00:55:02.443Z,2.60
2022-08-11T00:57:36.754Z,2.10
2022-08-11T00:59:34.978Z,2.63
2022-08-11T01:01:16.257Z,2.80
2022-08-11T01:03:32.236Z,2.83
2022-08-11T01:05:41.155Z,2.87
2022-08-11T01:08:00.600Z,2.47
2022-08-11T01:09:47.762Z,2.63
2022-08-11T01:12:00.706Z,2.40
2022-08-11T01:14:08.044Z,2.90
2022-08-11T01:15:58.577Z,2.50
2022-08-11T01:18:08.180Z,2.80
2022-08-11T01:20:39.744Z,2.67
2022-08-11T01:22:19.392Z,2.70
2022-08-11T01:24:18.218Z,2.60
2022-08-11T01:26:41.110Z,2.97
2022-08-11T01:28:40.775Z,2.60
2022-08-11T01:30:44.272Z,2.43
2022-08-11T01:32:40.585Z,2.70
2022-08-11T01:34:26.951Z,2.83
2022-08-11T01:36:30.795Z,2.70
2022-08-11T01:38:28.742Z,2.93
2022-08-11T01:40:19.542Z,3.27
2022-08-11T01:42:37.650Z,2.47
2022-08-11T01:44:39.724Z,2.60
2022-08-11T01:46:32.647Z,2.83
2022-08-11T01:48:20.866Z,3.30
2022-08-11T01:50:09.058Z,2.80
2022-08-11T01:52:04.594Z,2.57
2022-08-11T01:53:59.662Z,2.60
2022-08-11T01:56:04.933Z,2.70
2022-08-11T01:57:44.123Z,3.03
2022-08-11T01:59:39.279Z,2.67
2022-08-11T02:01:28.127Z,2.70
2022-08-11T02:03:25.208Z,2.70
2022-08-11T02:05:03.072Z,2.93
2022-08-11T02:06:59.457Z,3.00
2022-08-11T02:08:55.633Z,2.70
2022-08-11T02:11:05.176Z,2.87
2022-08-11T02:12:52.545Z,2.73
2022-08-11T02:15:04.419Z,3.23
2022-08-11T02:16:55.628Z,2.93
2022-08-11T02:18:52.672Z,3.07
2022-08-11T02:20:57.044Z,2.60
2022-08-11T02:23:41.053Z,2.73
2022-08-11T02:25:22.570Z,2.87
2022-08-11T02:27:14.076Z,2.67
2022-08-11T02:28:54.949Z,3.00
2022-08-11T02:30:32.932Z,2.80
2022-08-11T02:32:39.271Z,3.10
2022-08-11T02:34:42.222Z,3.00
2022-08-11T02:36:24.356Z,2.50
2022-08-11T02:38:26.507Z,3.13
2022-08-11T02:39:58.159Z,2.47
2022-08-11T02:42:08.696Z,3.20
2022-08-11T02:44:16.543Z,2.80
2022-08-11T02:46:00.940Z,2.63
2022-08-11T02:47:32.630Z,2.80
2022-08-11T02:49:23.038Z,2.70
2022-08-11T02:51:07.060Z,2.97
2022-08-11T02:53:12.769Z,2.63
2022-08-11T02:55:56.855Z,2.93
2022-08-11T02:57:26.222Z,2.90
2022-08-11T02:59:30.511Z,2.93
2022-08-11T03:01:15.483Z,3.10
2022-08-11T03:03:06.355Z,3.10
2022-08-11T03:04:58.702Z,3.20
2022-08-11T03:06:38.138Z,3.17
2022-08-11T03:08:23.845Z,2.97
2022-08-11T03:10:22.493Z,3.00
2022-08-11T03:12:29.930Z,2.87
2022-08-11T03:14:35.421Z,2.93
2022-08-11T03:16:43.110Z,3.30
2022-08-11T03:18:32.790Z,3.17
2022-08-11T03:20:37.825Z,2.80
2022-08-11T03:23:00.010Z,3.03
2022-08-11T03:24:47.373Z,2.93
2022-08-11T03:26:53.861Z,3.77
2022-08-11T03:28:44.394Z,3.13
2022-08-11T03:30:38.386Z,3.50
2022-08-11T03:32:24.654Z,2.70
2022-08-11T03:34:08.404Z,3.70
2022-08-11T03:36:03.435Z,3.97
2022-08-11T03:37:52.028Z,3.10
2022-08-11T03:39:33.130Z,3.50
2022-08-11T03:42:04.173Z,3.30
2022-08-11T03:43:50.272Z,3.30
2022-08-11T03:46:05.852Z,3.60
2022-08-11T03:47:52.278Z,3.80
2022-08-11T03:49:45.516Z,3.27
2022-08-11T03:51:23.319Z,3.37
2022-08-11T03:53:34.224Z,2.90
2022-08-11T03:55:34.612Z,3.60
2022-08-11T03:58:00.087Z,3.43
2022-08-11T03:59:56.357Z,3.40
2022-08-11T04:01:55.359Z,3.30
2022-08-11T04:03:48.919Z,3.53
2022-08-11T04:06:13.650Z,3.40
2022-08-11T04:08:06.488Z,3.33
2022-08-11T04:10:07.304Z,3.50
2022-08-11T04:12:09.505Z,4.00
2022-08-11T04:13:55.478Z,3.23
2022-08-11T04:15:54.449Z,3.60
2022-08-11T04:18:07.489Z,3.90
2022-08-11T04:20:03.822Z,3.80
2022-08-11T04:21:35.541Z,4.40
2022-08-11T04:24:34.813Z,3.90
2022-08-11T04:25:51.106Z,3.50
2022-08-11T04:27:53.284Z,3.60
2022-08-11T04:30:03.961Z,3.60
2022-08-11T04:32:00.753Z,3.77
2022-08-11T04:34:09.859Z,3.63
2022-08-11T04:35:57.802Z,3.30
2022-08-11T04:38:23.685Z,4.10
2022-08-11T04:40:04.181Z,4.07
2022-08-11T04:42:37.677Z,3.80
2022-08-11T04:44:53.836Z,3.80
2022-08-11T04:46:49.547Z,4.37
2022-08-11T04:49:02.114Z,3.60
2022-08-11T04:51:00.759Z,4.27
2022-08-11T04:53:01.665Z,4.10
2022-08-11T04:55:20.724Z,4.27
2022-08-11T04:57:20.853Z,4.03
2022-08-11T04:59:22.943Z,4.10
2022-08-11T05:01:40.803Z,3.40
2022-08-11T05:03:42.996Z,4.40
2022-08-11T05:05:56.394Z,4.00
2022-08-11T05:07:56.655Z,4.00
2022-08-11T05:09:45.190Z,3.97
2022-08-11T05:11:29.176Z,4.63
2022-08-11T05:13:25.081Z,4.10
2022-08-11T05:15:28.284Z,4.60
2022-08-11T05:17:27.618Z,3.90
2022-08-11T05:19:19.724Z,4.03
2022-08-11T05:21:12.934Z,4.10
2022-08-11T05:23:08.694Z,4.40
2022-08-11T05:25:09.539Z,4.20
2022-08-11T05:27:09.961Z,3.97
2022-08-11T05:29:20.824Z,4.77
2022-08-11T05:31:18.749Z,3.83
2022-08-11T05:33:29.291Z,4.40
2022-08-11T05:35:04.173Z,4.23
2022-08-11T05:36:45.661Z,4.70
2022-08-11T05:38:43.087Z,3.90
2022-08-11T05:40:34.285Z,4.20
2022-08-11T05:42:29.784Z,3.73
2022-08-11T05:44:23.040Z,3.97
2022-08-11T05:46:18.660Z,4.40
2022-08-11T05:48:10.147Z,4.20
2022-08-11T05:50:00.775Z,3.93
2022-08-11T05:52:16.395Z,4.07
2022-08-11T05:54:29.250Z,4.37
2022-08-11T05:56:20.865Z,3.93
2022-08-11T05:58:06.007Z,4.70
2022-08-11T05:59:37.904Z,3.27
2022-08-11T06:01:13.759Z,3.60
2022-08-11T06:02:51.909Z,3.70
2022-08-11T06:04:30.855Z,4.90
2022-08-11T06:06:09.565Z,4.00
2022-08-11T06:07:48.949Z,3.40
2022-08-11T06:09:48.941Z,4.00
2022-08-11T06:11:20.894Z,3.47
2022-08-11T06:13:16.501Z,3.30
2022-08-11T06:14:53.790Z,3.03
2022-08-11T06:16:28.102Z,3.33
2022-08-11T06:18:04.078Z,2.80
2022-08-11T06:19:39.834Z,2.83
2022-08-11T06:21:12.092Z,3.10
2022-08-11T06:22:50.986Z,2.80
2022-08-11T06:24:25.180Z,3.10
2022-08-11T06:25:59.003Z,3.43
2022-08-11T06:27:33.494Z,3.40
2022-08-11T06:29:08.733Z,3.37
2022-08-11T06:30:43.948Z,3.17
2022-08-11T06:32:16.340Z,3.00
2022-08-11T06:33:57.438Z,3.40
2022-08-11T06:35:38.617Z,3.10
2022-08-11T06:37:49.369Z,3.37
2022-08-11T06:39:36.171Z,3.77
2022-08-11T06:41:36.607Z,3.80
2022-08-11T06:43:24.106Z,3.10
2022-08-11T06:45:08.186Z,3.73
2022-08-11T06:46:41.711Z,3.63
2022-08-11T06:48:18.224Z,3.70
2022-08-11T06:50:08.922Z,3.50
2022-08-11T06:51:41.720Z,3.63
2022-08-11T06:53:17.392Z,3.53
2022-08-11T06:55:05.402Z,3.77
2022-08-11T06:57:27.875Z,4.00
2022-08-11T06:59:12.158Z,3.80
2022-08-11T07:00:47.709Z,3.87
2022-08-11T07:02:35.094Z,4.33
2022-08-11T07:04:10.271Z,4.27
2022-08-11T07:05:53.878Z,4.23
2022-08-11T07:08:33.745Z,3.80
2022-08-11T07:10:57.720Z,3.90
2022-08-11T07:13:01.405Z,4.40
2022-08-11T07:14:54.119Z,3.83
2022-08-11T07:16:36.037Z,3.70
2022-08-11T07:18:29.734Z,3.83
2022-08-11T07:20:21.594Z,4.30
2022-08-11T07:22:14.153Z,4.10
2022-08-11T07:24:04.697Z,3.83
2022-08-11T07:25:59.838Z,4.07
2022-08-11T07:28:03.063Z,4.03
2022-08-11T07:29:36.469Z,3.60
2022-08-11T07:31:14.633Z,4.30
2022-08-11T07:32:52.927Z,3.80
2022-08-11T07:34:34.073Z,3.93
2022-08-11T07:36:12.591Z,4.10
2022-08-11T07:37:50.784Z,4.37
2022-08-11T07:39:35.882Z,3.87
2022-08-11T07:41:15.866Z,3.40
2022-08-11T07:42:51.021Z,3.77
2022-08-11T07:44:29.436Z,3.50
2022-08-11T07:46:24.217Z,3.77
2022-08-11T07:48:14.754Z,3.80
2022-08-11T07:50:08.741Z,4.03
2022-08-11T07:52:01.976Z,4.07
2022-08-11T07:53:58.016Z,3.80
2022-08-11T07:55:51.308Z,3.67
2022-08-11T07:58:05.550Z,4.10
2022-08-11T08:00:04.040Z,3.97
2022-08-11T08:02:07.835Z,3.57
2022-08-11T08:04:01.036Z,3.47
2022-08-11T08:05:51.951Z,3.67
2022-08-11T08:07:42.920Z,3.90
2022-08-11T08:09:37.016Z,3.50
2022-08-11T08:11:27.773Z,2.93
2022-08-11T08:13:18.890Z,2.87
2022-08-11T08:15:11.409Z,3.47
2022-08-11T08:17:02.563Z,3.60
2022-08-11T08:18:35.933Z,4.00
2022-08-11T08:20:12.362Z,3.47
2022-08-11T08:21:45.649Z,3.20
2022-08-11T08:23:32.977Z,3.00
2022-08-11T08:25:07.362Z,3.13
2022-08-11T08:26:58.356Z,3.50
2022-08-11T08:28:32.666Z,2.97
2022-08-11T08:30:25.259Z,3.00
2022-08-11T08:31:57.735Z,3.60
2022-08-11T08:33:31.167Z,3.73
2022-08-11T08:35:04.726Z,2.87
2022-08-11T08:36:37.444Z,3.10
2022-08-11T08:38:09.231Z,2.90
2022-08-11T08:39:41.076Z,3.40
2022-08-11T08:41:16.294Z,2.90
2022-08-11T08:42:58.125Z,3.40
2022-08-11T08:44:40.795Z,3.40
2022-08-11T08:46:14.931Z,3.17
2022-08-11T08:47:53.550Z,3.20
2022-08-11T08:49:40.578Z,3.13
2022-08-11T08:51:58.611Z,2.77
2022-08-11T08:53:29.498Z,3.00
2022-08-11T08:55:04.244Z,3.30
2022-08-11T08:56:37.317Z,3.10
2022-08-11T08:58:10.084Z,3.03
2022-08-11T08:59:49.314Z,3.07
2022-08-11T09:01:23.220Z,3.17
2022-08-11T09:02:55.235Z,3.20
2022-08-11T09:04:28.497Z,3.20
2022-08-11T09:06:00.753Z,3.10
2022-08-11T09:07:39.559Z,3.10
2022-08-11T09:09:13.061Z,2.90
2022-08-11T09:11:13.311Z,3.30
2022-08-11T09:12:45.661Z,2.90
2022-08-11T09:14:51.905Z,2.50
2022-08-11T09:16:24.593Z,3.10
2022-08-11T09:18:03.497Z,3.30
2022-08-11T09:19:35.285Z,3.00
2022-08-11T09:21:08.067Z,3.10
2022-08-11T09:25:13.936Z,3.50
2022-08-11T09:26:59.276Z,3.20
2022-08-11T09:28:31.473Z,2.47
2022-08-11T09:30:05.445Z,3.20
2022-08-11T09:31:40.355Z,3.50
2022-08-11T09:33:16.550Z,2.90
2022-08-11T09:34:52.009Z,2.60
2022-08-11T09:36:43.191Z,2.60
2022-08-11T09:38:37.562Z,2.53
2022-08-11T09:40:29.326Z,3.10
2022-08-11T09:42:04.191Z,3.20
2022-08-11T09:44:03.892Z,3.00
2022-08-11T09:45:40.525Z,2.73
2022-08-11T09:47:15.337Z,2.93
2022-08-11T09:48:47.731Z,2.67
2022-08-11T09:50:19.836Z,3.57
2022-08-11T09:52:02.273Z,3.00
2022-08-11T09:53:41.105Z,2.93
2022-08-11T09:55:15.574Z,2.90
2022-08-11T09:57:05.999Z,3.20
2022-08-11T09:58:42.539Z,2.70
2022-08-11T10:00:16.044Z,2.63
2022-08-11T10:01:52.283Z,2.70
2022-08-11T10:03:26.170Z,2.50
2022-08-11T10:05:18.887Z,2.87
2022-08-11T10:07:04.382Z,2.80
2022-08-11T10:08:39.611Z,3.10
2022-08-11T10:10:12.252Z,2.97
2022-08-11T10:11:44.366Z,2.60
2022-08-11T10:14:06.081Z,2.90
2022-08-11T10:15:39.711Z,2.93
2022-08-11T10:17:35.526Z,2.57
2022-08-11T10:19:09.205Z,2.60
2022-08-11T10:20:42.571Z,2.37
2022-08-11T10:22:36.174Z,2.30
2022-08-11T10:24:28.900Z,2.40
2022-08-11T10:26:19.294Z,2.63
2022-08-11T10:28:28.804Z,2.73
2022-08-11T10:30:09.783Z,2.67
2022-08-11T10:32:02.932Z,2.93
2022-08-11T10:33:59.219Z,2.80
2022-08-11T10:35:33.016Z,2.63
2022-08-11T10:37:05.394Z,2.70
2022-08-11T10:38:37.442Z,2.60
2022-08-11T10:40:15.601Z,2.50
2022-08-11T10:42:10.737Z,2.50
2022-08-11T10:44:02.004Z,2.47
2022-08-11T10:45:56.625Z,2.70
2022-08-11T10:47:34.784Z,2.50
2022-08-11T10:49:07.994Z,2.50
2022-08-11T10:50:58.273Z,2.53
2022-08-11T10:52:49.220Z,2.73
2022-08-11T10:54:41.266Z,2.65
2022-08-11T10:56:31.481Z,2.90
2022-08-11T10:58:25.038Z,2.70
2022-08-11T10:59:57.575Z,2.40
2022-08-11T11:01:34.596Z,2.50
2022-08-11T11:03:23.557Z,2.58
2022-08-11T11:05:09.767Z,2.40
2022-08-11T11:07:21.851Z,2.57
2022-08-11T11:09:08.797Z,2.40
2022-08-11T11:10:41.339Z,2.40
2022-08-11T11:12:49.255Z,2.22
2022-08-11T11:14:46.756Z,2.57
2022-08-11T11:16:45.082Z,2.38
2022-08-11T11:18:35.893Z,2.40
2022-08-11T11:20:08.908Z,2.67
2022-08-11T11:22:20.809Z,2.70
2022-08-11T11:23:58.087Z,3.50
2022-08-11T11:25:44.834Z,2.70
2022-08-11T11:27:31.218Z,2.80
2022-08-11T11:29:20.108Z,2.30
2022-08-11T11:30:59.990Z,2.45
2022-08-11T11:33:09.681Z,2.05
2022-08-11T11:35:09.152Z,2.40
2022-08-11T11:36:45.691Z,2.80
2022-08-11T11:38:18.272Z,2.75
2022-08-11T11:39:50.895Z,2.60
2022-08-11T11:41:27.139Z,2.38
2022-08-11T11:43:00.218Z,2.60
2022-08-11T11:44:32.915Z,2.58
2022-08-11T11:46:09.391Z,2.63
2022-08-11T11:47:41.893Z,2.30
2022-08-11T11:49:17.111Z,2.50
2022-08-11T11:50:49.536Z,2.50
2022-08-11T11:52:22.423Z,2.53
2022-08-11T11:53:55.693Z,2.45
2022-08-11T11:55:31.836Z,2.78
2022-08-11T11:57:23.485Z,2.45
2022-08-11T11:59:14.921Z,2.65
2022-08-11T12:01:06.895Z,2.80
2022-08-11T12:02:40.929Z,2.70
2022-08-11T12:04:15.261Z,2.70
2022-08-11T12:05:47.624Z,3.00
2022-08-11T12:07:38.905Z,2.60
2022-08-11T12:09:15.641Z,2.75
2022-08-11T12:11:35.222Z,2.72
2022-08-11T12:13:25.772Z,3.03
2022-08-11T12:14:58.087Z,2.83
2022-08-11T12:16:36.378Z,3.10
2022-08-11T12:18:10.477Z,2.85
2022-08-11T12:19:43.237Z,3.20
2022-08-11T12:21:20.981Z,3.08
2022-08-11T12:23:14.649Z,3.58
2022-08-11T12:25:05.165Z,3.30
2022-08-11T12:27:14.782Z,2.60
2022-08-11T12:28:42.378Z,3.20
2022-08-11T12:30:14.245Z,2.90
2022-08-11T12:31:46.805Z,2.70
2022-08-11T12:33:24.052Z,2.70
2022-08-11T12:34:57.132Z,2.67
2022-08-11T12:36:33.516Z,3.03
2022-08-11T12:38:09.468Z,3.08
2022-08-11T12:40:16.753Z,2.70
2022-08-11T12:42:16.529Z,2.70
2022-08-11T12:44:07.672Z,2.80
2022-08-11T12:45:41.677Z,3.00
2022-08-11T12:47:17.873Z,2.85
2022-08-11T12:49:14.422Z,3.13
2022-08-11T12:51:08.776Z,3.13
2022-08-11T12:52:50.302Z,2.95
2022-08-11T12:54:25.336Z,3.17
2022-08-11T12:56:21.649Z,3.22
2022-08-11T12:58:12.019Z,3.05
2022-08-11T13:00:02.884Z,3.00
2022-08-11T13:01:53.357Z,2.95
2022-08-11T13:03:44.044Z,2.80
2022-08-11T13:05:24.421Z,2.88
2022-08-11T13:06:56.282Z,2.70
2022-08-11T13:08:29.457Z,3.00
2022-08-11T13:10:05.135Z,3.00
2022-08-11T13:11:57.719Z,3.00
2022-08-11T13:13:52.346Z,3.22
2022-08-11T13:15:24.552Z,2.97
2022-08-11T13:17:15.312Z,2.67
2022-08-11T13:18:47.157Z,3.08
2022-08-11T13:20:21.338Z,3.03
2022-08-11T13:21:53.813Z,2.67
2022-08-11T13:23:27.350Z,2.75
2022-08-11T13:24:59.541Z,2.72
2022-08-11T13:26:47.595Z,2.85
2022-08-11T13:28:24.555Z,3.50
2022-08-11T13:30:20.281Z,2.97
2022-08-11T13:31:56.874Z,3.10
2022-08-11T13:33:29.180Z,3.00
2022-08-11T13:35:01.055Z,3.03
2022-08-11T13:36:32.921Z,3.17
2022-08-11T13:38:27.371Z,3.47
2022-08-11T13:39:58.903Z,3.28
2022-08-11T13:41:40.999Z,3.30
2022-08-11T13:43:17.012Z,3.40
2022-08-11T13:44:49.205Z,3.55
2022-08-11T13:46:24.274Z,3.13
2022-08-11T13:48:01.219Z,2.95
2022-08-11T13:49:39.710Z,2.88
2022-08-11T13:51:31.361Z,2.92
2022-08-11T13:53:06.917Z,3.13
2022-08-11T13:54:41.269Z,2.90
2022-08-11T13:56:13.106Z,3.13
2022-08-11T13:58:06.710Z,2.90
2022-08-11T13:59:45.297Z,2.78
2022-08-11T14:02:19.351Z,3.17
2022-08-11T14:03:27.529Z,3.20
2022-08-11T14:05:25.599Z,3.25
2022-08-11T14:07:00.702Z,3.00
2022-08-11T14:08:38.398Z,3.20
2022-08-11T14:10:13.016Z,2.88
2022-08-11T14:12:20.304Z,2.70
2022-08-11T14:13:58.389Z,2.78
2022-08-11T14:15:34.817Z,3.17
2022-08-11T14:17:08.871Z,2.85
2022-08-11T14:18:45.601Z,2.50
2022-08-11T14:20:39.106Z,2.90
2022-08-11T14:22:15.428Z,2.70
2022-08-11T14:23:55.035Z,2.95
2022-08-11T14:25:59.980Z,2.97
2022-08-11T14:28:31.039Z,2.90
2022-08-11T14:29:23.423Z,3.40
2022-08-11T14:30:57.628Z,2.55
2022-08-11T14:32:33.099Z,3.40
2022-08-11T14:34:10.215Z,2.75
2022-08-11T14:35:44.374Z,3.10
2022-08-11T14:37:23.765Z,2.90
2022-08-11T14:38:56.409Z,2.67
2022-08-11T14:40:54.239Z,2.85
2022-08-11T14:42:45.466Z,3.30
2022-08-11T14:44:37.309Z,3.20
2022-08-11T14:46:27.818Z,3.15
2022-08-11T14:48:02.151Z,2.80
2022-08-11T14:49:36.946Z,2.67
2022-08-11T14:51:28.863Z,2.67
2022-08-11T14:53:11.722Z,3.17
2022-08-11T14:55:11.515Z,3.28
2022-08-11T14:56:44.840Z,2.72
2022-08-11T14:58:18.779Z,2.47
2022-08-11T14:59:51.318Z,2.67
2022-08-11T15:01:46.270Z,2.65
2022-08-11T15:03:18.545Z,2.80
2022-08-11T15:04:51.371Z,2.90
2022-08-11T15:06:25.867Z,2.70
2022-08-11T15:07:59.968Z,3.17
2022-08-11T15:09:32.682Z,3.15
2022-08-11T15:11:25.001Z,2.75
2022-08-11T15:12:57.426Z,2.47
2022-08-11T15:15:01.926Z,2.83
2022-08-11T15:17:14.322Z,2.67
2022-08-11T15:18:46.207Z,2.65
2022-08-11T15:20:38.663Z,3.00
2022-08-11T15:22:29.506Z,2.67
2022-08-11T15:24:19.459Z,2.50
2022-08-11T15:25:56.419Z,2.80
2022-08-11T15:27:49.507Z,2.92
2022-08-11T15:29:42.415Z,2.70
2022-08-11T15:31:44.316Z,3.00
2022-08-11T15:33:44.255Z,2.75
2022-08-11T15:35:39.403Z,3.08
2022-08-11T15:37:31.441Z,2.80
2022-08-11T15:39:20.796Z,3.00
2022-08-11T15:41:14.725Z,2.50
2022-08-11T15:43:32.192Z,2.50
2022-08-11T15:45:27.206Z,2.53
2022-08-11T15:47:03.830Z,2.85
2022-08-11T15:48:43.091Z,2.67
2022-08-11T15:50:19.614Z,2.90
2022-08-11T15:52:15.667Z,3.10
2022-08-11T15:53:58.084Z,2.90
2022-08-11T15:55:32.654Z,3.15
2022-08-11T15:57:06.983Z,3.10
2022-08-11T15:59:16.315Z,2.88
2022-08-11T16:01:15.500Z,2.55
2022-08-11T16:02:57.158Z,3.10
2022-08-11T16:04:31.303Z,2.83
2022-08-11T16:06:04.061Z,2.60
2022-08-11T16:07:41.651Z,2.90
2022-08-11T16:09:18.572Z,3.20
2022-08-11T16:10:53.265Z,2.78
2022-08-11T16:12:30.392Z,2.58
2022-08-11T16:14:26.998Z,3.08
2022-08-11T16:16:16.369Z,2.85
2022-08-11T16:17:57.363Z,3.40
2022-08-11T16:19:35.949Z,2.55
2022-08-11T16:21:10.878Z,3.10
2022-08-11T16:23:07.290Z,2.90
2022-08-11T16:27:01.593Z,2.85
2022-08-11T16:27:08.912Z,2.60
2022-08-11T16:28:34.928Z,2.70
2022-08-11T16:30:08.052Z,2.75
2022-08-11T16:31:41.721Z,2.58
2022-08-11T16:33:48.410Z,2.85
2022-08-11T16:35:37.051Z,3.05
2022-08-11T16:37:27.501Z,2.40
2022-08-11T16:39:01.540Z,2.75
2022-08-11T16:40:34.386Z,2.50
2022-08-11T16:43:05.310Z,2.90
2022-08-11T16:44:38.293Z,2.53
2022-08-11T16:46:32.288Z,2.90
2022-08-11T16:48:35.389Z,2.53
2022-08-11T16:50:00.175Z,2.90
2022-08-11T16:51:32.761Z,2.63
2022-08-11T16:53:05.308Z,2.80
2022-08-11T16:54:38.312Z,2.65
2022-08-11T16:56:14.185Z,2.90
2022-08-11T16:58:05.147Z,3.03
2022-08-11T16:59:38.803Z,2.67
2022-08-11T17:01:12.500Z,2.67
2022-08-11T17:03:09.919Z,2.45
2022-08-11T17:05:08.971Z,3.00
2022-08-11T17:07:03.819Z,2.80
2022-08-11T17:09:14.224Z,2.92
2022-08-11T17:11:10.505Z,2.65
2022-08-11T17:13:02.311Z,2.70
2022-08-11T17:14:58.676Z,2.75
2022-08-11T17:16:35.573Z,3.00
2022-08-11T17:18:10.536Z,2.55
2022-08-11T17:20:41.272Z,2.35
2022-08-11T17:22:02.158Z,2.55
2022-08-11T17:23:50.494Z,2.25
2022-08-11T17:25:28.280Z,2.97
2022-08-11T17:27:01.765Z,2.25
2022-08-11T17:28:35.059Z,2.40
2022-08-11T17:30:08.328Z,2.13
2022-08-11T17:32:04.044Z,2.22
2022-08-11T17:33:55.172Z,2.40
2022-08-11T17:35:33.134Z,2.42
2022-08-11T17:37:05.198Z,2.55
2022-08-11T17:38:38.213Z,2.58
2022-08-11T17:40:13.496Z,2.50
2022-08-11T17:42:04.729Z,2.63
2022-08-11T17:43:56.385Z,2.50
2022-08-11T17:45:46.939Z,2.42
2022-08-11T17:47:39.016Z,2.63
2022-08-11T17:49:12.932Z,2.58
2022-08-11T17:50:46.019Z,2.28
2022-08-11T17:52:37.039Z,2.55
2022-08-11T17:54:28.541Z,2.50
2022-08-11T17:56:21.506Z,2.20
2022-08-11T17:58:13.550Z,2.53
2022-08-11T17:59:52.755Z,2.35
2022-08-11T18:01:26.017Z,2.33
2022-08-11T18:03:18.791Z,2.60
2022-08-11T18:04:54.136Z,2.58
2022-08-11T18:06:33.964Z,2.92
2022-08-11T18:08:27.555Z,2.83
2022-08-11T18:10:20.004Z,2.70
2022-08-11T18:12:13.060Z,2.50
2022-08-11T18:14:06.168Z,2.78
2022-08-11T18:16:02.021Z,2.42
2022-08-11T18:17:54.085Z,2.75
2022-08-11T18:19:44.626Z,2.53
2022-08-11T18:21:37.066Z,2.65
2022-08-11T18:23:40.708Z,2.53
2022-08-11T18:25:45.228Z,2.78
2022-08-11T18:27:39.159Z,2.70
2022-08-11T18:29:32.567Z,2.47
2022-08-11T18:31:35.351Z,2.50
2022-08-11T18:35:39.227Z,2.88
2022-08-11T18:37:34.216Z,2.72
2022-08-11T18:39:29.583Z,2.40
2022-08-11T18:41:21.760Z,2.35
2022-08-11T18:43:15.949Z,3.03
2022-08-11T18:45:09.008Z,2.80
2022-08-11T18:47:07.838Z,2.10
2022-08-11T18:49:05.260Z,2.65
2022-08-11T18:51:31.487Z,2.20
2022-08-11T18:53:11.715Z,2.42
2022-08-11T18:55:05.688Z,2.85
2022-08-11T18:57:04.152Z,2.83
2022-08-11T18:59:00.133Z,3.00
2022-08-11T19:00:54.547Z,3.08
2022-08-11T19:02:49.503Z,2.85
2022-08-11T19:04:41.065Z,2.78
2022-08-11T19:06:40.089Z,2.95
2022-08-11T19:08:32.033Z,3.35
2022-08-11T19:10:23.545Z,2.80
2022-08-11T19:12:15.053Z,3.20
2022-08-11T19:14:06.508Z,2.90
2022-08-11T19:15:58.137Z,2.30
2022-08-11T19:17:51.117Z,2.90
2022-08-11T19:19:46.883Z,2.85
2022-08-11T19:21:39.188Z,2.90
2022-08-11T19:23:33.678Z,2.90
2022-08-11T19:25:26.065Z,3.22
2022-08-11T19:27:18.789Z,2.47
2022-08-11T19:30:07.668Z,3.10
2022-08-11T19:31:22.577Z,3.05
2022-08-11T19:33:14.087Z,2.67
2022-08-11T19:35:05.991Z,3.00
2022-08-11T19:36:56.953Z,2.80
2022-08-11T19:38:52.823Z,2.92
2022-08-11T19:40:46.223Z,2.70
2022-08-11T19:42:37.370Z,2.97
2022-08-11T19:44:29.522Z,3.30
2022-08-11T19:46:20.650Z,3.08
2022-08-11T19:48:31.353Z,3.15
2022-08-11T19:50:24.294Z,2.75
2022-08-11T19:52:17.527Z,2.60
2022-08-11T19:54:08.522Z,2.83
2022-08-11T19:55:59.886Z,2.70
2022-08-11T19:57:53.195Z,2.78
2022-08-11T19:59:46.624Z,2.83
2022-08-11T20:01:37.152Z,2.88
2022-08-11T20:03:30.023Z,3.08
2022-08-11T20:05:20.432Z,2.80
2022-08-11T20:07:12.384Z,3.13
2022-08-11T20:09:05.604Z,2.58
2022-08-11T20:10:57.271Z,4.43
2022-08-11T20:12:50.068Z,2.90
2022-08-11T20:14:42.400Z,3.03
2022-08-11T20:16:38.270Z,2.80
2022-08-11T20:18:31.003Z,2.97
2022-08-11T20:20:24.725Z,2.92
2022-08-11T20:22:17.056Z,2.75
2022-08-11T20:24:07.622Z,2.95
2022-08-11T20:26:08.533Z,2.92
2022-08-11T20:28:13.908Z,2.90
2022-08-11T20:30:06.982Z,2.70
2022-08-11T20:31:58.433Z,2.83
2022-08-11T20:33:51.347Z,2.83
2022-08-11T20:35:42.697Z,3.10
2022-08-11T20:37:35.137Z,3.42
2022-08-11T20:39:26.797Z,3.55
2022-08-11T20:41:18.688Z,3.90
2022-08-11T20:43:09.245Z,3.92
2022-08-11T20:45:23.454Z,4.50
2022-08-11T20:47:15.749Z,4.13
2022-08-11T20:49:07.789Z,4.03
2022-08-11T20:50:58.745Z,4.18
2022-08-11T20:52:50.449Z,4.40
2022-08-11T20:54:44.624Z,4.28
2022-08-11T20:56:38.397Z,4.65
2022-08-11T20:58:46.959Z,4.55
2022-08-11T21:00:41.617Z,4.50
2022-08-11T21:02:36.059Z,4.97
2022-08-11T21:04:26.564Z,3.72
2022-08-11T21:06:31.214Z,5.07
2022-08-11T21:08:25.556Z,4.32
2022-08-11T21:10:22.851Z,4.03
2022-08-11T21:12:16.838Z,3.60
2022-08-11T21:14:07.369Z,4.18
2022-08-11T21:16:03.378Z,4.30
2022-08-11T21:18:00.600Z,3.47
2022-08-11T21:20:10.905Z,4.13
2022-08-11T21:22:07.067Z,4.10
2022-08-11T21:24:01.293Z,3.28
2022-08-11T21:26:02.228Z,3.63
2022-08-11T21:27:56.961Z,3.40
2022-08-11T21:29:49.453Z,3.40
2022-08-11T21:31:40.693Z,3.70
2022-08-11T21:33:32.102Z,3.23
2022-08-11T21:35:23.910Z,3.23
2022-08-11T21:37:17.542Z,3.60
2022-08-11T21:39:09.457Z,3.10
2022-08-11T21:41:02.012Z,3.23
2022-08-11T21:42:56.017Z,3.53
2022-08-11T21:44:47.743Z,3.13
2022-08-11T21:46:39.891Z,3.27
2022-08-11T21:48:34.021Z,3.40
2022-08-11T21:50:24.526Z,3.27
2022-08-11T21:52:15.101Z,3.30
2022-08-11T21:54:08.621Z,3.13
2022-08-11T21:55:59.590Z,3.43
2022-08-11T21:57:50.670Z,3.40
2022-08-11T21:59:54.493Z,4.10
2022-08-11T22:01:47.080Z,3.20
2022-08-11T22:03:49.288Z,3.43
2022-08-11T22:05:41.337Z,3.10
2022-08-11T22:07:32.260Z,3.20
2022-08-11T22:09:30.027Z,3.60
2022-08-11T22:11:32.120Z,3.53
2022-08-11T22:13:23.214Z,3.60
2022-08-11T22:15:14.253Z,3.30
2022-08-11T22:17:04.765Z,3.73
2022-08-11T22:18:55.912Z,2.87
2022-08-11T22:20:48.447Z,3.03
2022-08-11T22:22:39.753Z,3.00
2022-08-11T22:24:46.010Z,2.73
2022-08-11T22:26:37.407Z,3.20
2022-08-11T22:28:30.130Z,3.20
2022-08-11T22:30:20.553Z,3.10
2022-08-11T22:32:14.131Z,3.07
2022-08-11T22:34:04.729Z,2.90
2022-08-11T22:35:57.851Z,3.20
2022-08-11T22:37:50.023Z,2.87
2022-08-11T22:39:41.478Z,3.07
2022-08-11T22:41:32.461Z,3.87
2022-08-11T22:43:23.072Z,3.17
2022-08-11T22:45:13.607Z,3.10
2022-08-11T22:47:04.060Z,2.97
2022-08-11T22:48:55.483Z,3.17
2022-08-11T22:50:46.107Z,3.27
2022-08-11T22:52:38.910Z,2.60
2022-08-11T22:54:30.141Z,2.90
2022-08-11T22:56:20.528Z,3.20
2022-08-11T22:58:25.119Z,3.20
2022-08-11T23:00:16.853Z,3.40
2022-08-11T23:02:08.102Z,3.23
2022-08-11T23:04:00.159Z,3.30
2022-08-11T23:05:52.337Z,2.80
2022-08-11T23:07:50.236Z,3.13
2022-08-11T23:09:43.674Z,3.70
2022-08-11T23:12:06.647Z,3.30
2022-08-11T23:13:47.312Z,3.50
2022-08-11T23:15:37.788Z,3.17
2022-08-11T23:17:32.317Z,3.47
2022-08-11T23:20:06.753Z,3.80
2022-08-11T23:21:34.037Z,3.30
2022-08-11T23:23:26.840Z,3.37
2022-08-11T23:25:18.115Z,3.50
2022-08-11T23:27:08.900Z,3.50
2022-08-11T23:29:02.494Z,3.20
2022-08-11T23:30:57.925Z,3.80
2022-08-11T23:32:49.960Z,3.70
2022-08-11T23:35:03.998Z,3.70
2022-08-11T23:36:55.361Z,3.77
2022-08-11T23:38:45.500Z,4.30
2022-08-11T23:40:35.901Z,4.27
2022-08-11T23:42:26.374Z,4.10
2022-08-11T23:44:20.834Z,4.40
2022-08-11T23:46:11.575Z,4.50
2022-08-11T23:48:02.629Z,4.00
2022-08-11T23:49:55.552Z,3.93
2022-08-11T23:51:47.963Z,4.00
2022-08-11T23:53:39.224Z,4.27
2022-08-11T23:55:30.202Z,3.87
2022-08-11T23:57:21.589Z,4.30
2022-08-11T23:59:12.017Z,4.70
